Terminal Aerodrome Forecast
Issued by NWS

Home | Current Version | Previous Version | Text Only | Print | Product List | Glossary On
Versions: 1 2 3 4 5 6 7 8 9 10 11 12 13 14 15 16 17 18 19 20
000
FTUS42 KTAE 130500
TAFABY
TAF
KABY 130520Z 1306/1406 VRB03KT P6SM FEW120 SCT250
     FM130800 00000KT P6SM BKN008
     FM131300 20005KT P6SM SCT040
     FM132000 24007KT P6SM VCTS SCT030CB BKN050=

USA.gov is the U.S. government's official web portal to all federal, state and local government web resources and services.